sensor_id;sensor_type;location;lat;lon;timestamp;P1;durP1;ratioP1;P2;durP2;ratioP2
18875;SDS011;9570;50.854;13.778;2023-02-25T00:01:42;5.47;;;3.47;;
18875;SDS011;9570;50.854;13.778;2023-02-25T00:04:08;4.10;;;3.50;;
18875;SDS011;9570;50.854;13.778;2023-02-25T00:06:33;3.20;;;2.80;;
18875;SDS011;9570;50.854;13.778;2023-02-25T00:08:59;2.97;;;2.67;;
18875;SDS011;9570;50.854;13.778;2023-02-25T00:11:24;3.30;;;2.60;;
18875;SDS011;9570;50.854;13.778;2023-02-25T00:13:51;2.20;;;2.00;;
18875;SDS011;9570;50.854;13.778;2023-02-25T00:16:17;3.23;;;2.40;;
18875;SDS011;9570;50.854;13.778;2023-02-25T00:18:44;2.43;;;2.07;;
18875;SDS011;9570;50.854;13.778;2023-02-25T00:21:11;2.30;;;2.10;;
18875;SDS011;9570;50.854;13.778;2023-02-25T00:23:41;2.63;;;2.30;;
18875;SDS011;9570;50.854;13.778;2023-02-25T00:26:07;2.60;;;2.40;;
18875;SDS011;9570;50.854;13.778;2023-02-25T00:28:33;2.60;;;2.40;;
18875;SDS011;9570;50.854;13.778;2023-02-25T00:31:04;2.93;;;2.47;;
18875;SDS011;9570;50.854;13.778;2023-02-25T00:33:34;2.40;;;2.20;;
18875;SDS011;9570;50.854;13.778;2023-02-25T00:36:00;2.27;;;2.07;;
18875;SDS011;9570;50.854;13.778;2023-02-25T00:38:29;2.77;;;2.40;;
18875;SDS011;9570;50.854;13.778;2023-02-25T00:40:54;2.27;;;2.07;;
18875;SDS011;9570;50.854;13.778;2023-02-25T00:43:20;2.73;;;1.97;;
18875;SDS011;9570;50.854;13.778;2023-02-25T00:45:46;2.37;;;2.07;;
18875;SDS011;9570;50.854;13.778;2023-02-25T00:48:11;3.20;;;2.23;;
18875;SDS011;9570;50.854;13.778;2023-02-25T00:50:36;2.97;;;2.60;;
18875;SDS011;9570;50.854;13.778;2023-02-25T00:53:03;3.67;;;2.70;;
18875;SDS011;9570;50.854;13.778;2023-02-25T00:55:29;3.77;;;2.77;;
18875;SDS011;9570;50.854;13.778;2023-02-25T00:57:57;3.50;;;2.70;;
18875;SDS011;9570;50.854;13.778;2023-02-25T01:00:24;4.67;;;3.53;;
18875;SDS011;9570;50.854;13.778;2023-02-25T01:02:49;5.30;;;3.43;;
18875;SDS011;9570;50.854;13.778;2023-02-25T01:05:14;3.83;;;3.03;;
18875;SDS011;9570;50.854;13.778;2023-02-25T01:07:40;6.33;;;3.80;;
18875;SDS011;9570;50.854;13.778;2023-02-25T01:10:06;5.73;;;3.90;;
18875;SDS011;9570;50.854;13.778;2023-02-25T01:12:34;6.13;;;3.83;;
18875;SDS011;9570;50.854;13.778;2023-02-25T01:15:00;8.70;;;4.20;;
18875;SDS011;9570;50.854;13.778;2023-02-25T01:17:25;5.47;;;4.07;;
18875;SDS011;9570;50.854;13.778;2023-02-25T01:19:51;6.77;;;4.30;;
18875;SDS011;9570;50.854;13.778;2023-02-25T01:22:16;7.83;;;4.03;;
18875;SDS011;9570;50.854;13.778;2023-02-25T01:24:42;4.97;;;3.43;;
18875;SDS011;9570;50.854;13.778;2023-02-25T01:27:07;7.33;;;4.17;;
18875;SDS011;9570;50.854;13.778;2023-02-25T01:29:34;9.80;;;4.27;;
18875;SDS011;9570;50.854;13.778;2023-02-25T01:32:03;5.50;;;3.67;;
18875;SDS011;9570;50.854;13.778;2023-02-25T01:34:29;5.43;;;4.00;;
18875;SDS011;9570;50.854;13.778;2023-02-25T01:36:55;6.07;;;4.27;;
18875;SDS011;9570;50.854;13.778;2023-02-25T01:39:22;6.23;;;3.97;;
18875;SDS011;9570;50.854;13.778;2023-02-25T01:41:49;7.23;;;4.13;;
18875;SDS011;9570;50.854;13.778;2023-02-25T01:44:18;8.80;;;4.10;;
18875;SDS011;9570;50.854;13.778;2023-02-25T01:46:49;7.50;;;4.70;;
18875;SDS011;9570;50.854;13.778;2023-02-25T01:49:21;5.97;;;3.73;;
18875;SDS011;9570;50.854;13.778;2023-02-25T01:51:56;9.07;;;4.47;;
18875;SDS011;9570;50.854;13.778;2023-02-25T01:54:30;7.53;;;3.83;;
18875;SDS011;9570;50.854;13.778;2023-02-25T01:56:57;7.73;;;3.60;;
18875;SDS011;9570;50.854;13.778;2023-02-25T01:59:24;9.60;;;4.10;;
18875;SDS011;9570;50.854;13.778;2023-02-25T02:01:52;7.63;;;3.97;;
18875;SDS011;9570;50.854;13.778;2023-02-25T02:04:18;8.40;;;3.60;;
18875;SDS011;9570;50.854;13.778;2023-02-25T02:06:45;6.87;;;3.97;;
18875;SDS011;9570;50.854;13.778;2023-02-25T02:09:13;8.23;;;3.77;;
18875;SDS011;9570;50.854;13.778;2023-02-25T02:11:42;9.00;;;3.60;;
18875;SDS011;9570;50.854;13.778;2023-02-25T02:14:08;7.33;;;3.47;;
18875;SDS011;9570;50.854;13.778;2023-02-25T02:16:39;8.53;;;3.37;;
18875;SDS011;9570;50.854;13.778;2023-02-25T02:19:20;6.67;;;3.80;;
18875;SDS011;9570;50.854;13.778;2023-02-25T02:25:13;5.50;;;3.03;;
18875;SDS011;9570;50.854;13.778;2023-02-25T02:28:09;4.80;;;2.83;;
18875;SDS011;9570;50.854;13.778;2023-02-25T02:31:07;4.77;;;3.10;;
18875;SDS011;9570;50.854;13.778;2023-02-25T02:34:03;5.40;;;2.70;;
18875;SDS011;9570;50.854;13.778;2023-02-25T02:42:15;6.67;;;2.53;;
18875;SDS011;9570;50.854;13.778;2023-02-25T02:47:35;3.47;;;2.23;;
18875;SDS011;9570;50.854;13.778;2023-02-25T02:50:07;5.37;;;2.60;;
18875;SDS011;9570;50.854;13.778;2023-02-25T02:52:48;7.00;;;2.53;;
18875;SDS011;9570;50.854;13.778;2023-02-25T02:55:18;5.50;;;2.47;;
18875;SDS011;9570;50.854;13.778;2023-02-25T02:58:00;8.77;;;2.73;;
18875;SDS011;9570;50.854;13.778;2023-02-25T03:00:33;5.40;;;2.70;;
18875;SDS011;9570;50.854;13.778;2023-02-25T03:03:05;5.87;;;3.07;;
18875;SDS011;9570;50.854;13.778;2023-02-25T03:05:34;6.27;;;2.70;;
18875;SDS011;9570;50.854;13.778;2023-02-25T03:10:59;6.00;;;2.50;;
18875;SDS011;9570;50.854;13.778;2023-02-25T03:13:25;4.47;;;2.60;;
18875;SDS011;9570;50.854;13.778;2023-02-25T03:15:51;5.33;;;2.53;;
18875;SDS011;9570;50.854;13.778;2023-02-25T03:20:58;6.57;;;2.60;;
18875;SDS011;9570;50.854;13.778;2023-02-25T03:23:27;4.13;;;2.30;;
18875;SDS011;9570;50.854;13.778;2023-02-25T03:25:56;4.93;;;2.10;;
18875;SDS011;9570;50.854;13.778;2023-02-25T03:28:34;3.17;;;2.13;;
18875;SDS011;9570;50.854;13.778;2023-02-25T03:31:02;5.80;;;2.27;;
18875;SDS011;9570;50.854;13.778;2023-02-25T03:33:33;5.47;;;2.10;;
18875;SDS011;9570;50.854;13.778;2023-02-25T03:36:07;4.20;;;2.03;;
18875;SDS011;9570;50.854;13.778;2023-02-25T03:38:36;4.60;;;1.90;;
18875;SDS011;9570;50.854;13.778;2023-02-25T03:41:07;2.47;;;1.90;;
18875;SDS011;9570;50.854;13.778;2023-02-25T03:43:36;4.33;;;1.80;;
18875;SDS011;9570;50.854;13.778;2023-02-25T03:46:06;4.53;;;1.87;;
18875;SDS011;9570;50.854;13.778;2023-02-25T03:48:33;2.47;;;2.00;;
18875;SDS011;9570;50.854;13.778;2023-02-25T03:51:01;5.30;;;1.77;;
18875;SDS011;9570;50.854;13.778;2023-02-25T03:53:28;3.47;;;2.13;;
18875;SDS011;9570;50.854;13.778;2023-02-25T03:55:55;2.33;;;1.70;;
18875;SDS011;9570;50.854;13.778;2023-02-25T03:58:29;3.03;;;2.00;;
18875;SDS011;9570;50.854;13.778;2023-02-25T04:00:57;4.17;;;1.83;;
18875;SDS011;9570;50.854;13.778;2023-02-25T04:03:26;1.93;;;1.60;;
18875;SDS011;9570;50.854;13.778;2023-02-25T04:05:52;2.83;;;1.70;;
18875;SDS011;9570;50.854;13.778;2023-02-25T04:08:17;3.07;;;1.83;;
18875;SDS011;9570;50.854;13.778;2023-02-25T04:10:43;2.27;;;1.50;;
18875;SDS011;9570;50.854;13.778;2023-02-25T04:13:10;3.47;;;1.60;;
18875;SDS011;9570;50.854;13.778;2023-02-25T04:15:38;3.67;;;1.83;;
18875;SDS011;9570;50.854;13.778;2023-02-25T04:18:04;2.80;;;1.53;;
18875;SDS011;9570;50.854;13.778;2023-02-25T04:20:30;2.97;;;1.53;;
18875;SDS011;9570;50.854;13.778;2023-02-25T04:22:56;2.60;;;1.50;;
18875;SDS011;9570;50.854;13.778;2023-02-25T04:25:21;1.83;;;1.50;;
18875;SDS011;9570;50.854;13.778;2023-02-25T04:27:47;3.10;;;1.60;;
18875;SDS011;9570;50.854;13.778;2023-02-25T04:30:12;4.07;;;1.60;;
18875;SDS011;9570;50.854;13.778;2023-02-25T04:32:38;4.97;;;1.67;;
18875;SDS011;9570;50.854;13.778;2023-02-25T04:35:04;2.60;;;1.73;;
18875;SDS011;9570;50.854;13.778;2023-02-25T04:37:33;4.67;;;1.90;;
18875;SDS011;9570;50.854;13.778;2023-02-25T04:39:58;4.77;;;1.50;;
18875;SDS011;9570;50.854;13.778;2023-02-25T04:42:24;3.50;;;1.87;;
18875;SDS011;9570;50.854;13.778;2023-02-25T04:44:49;3.40;;;1.70;;
18875;SDS011;9570;50.854;13.778;2023-02-25T04:47:15;4.50;;;1.90;;
18875;SDS011;9570;50.854;13.778;2023-02-25T04:49:42;3.67;;;1.77;;
18875;SDS011;9570;50.854;13.778;2023-02-25T04:52:11;3.57;;;2.03;;
18875;SDS011;9570;50.854;13.778;2023-02-25T04:54:39;6.83;;;1.83;;
18875;SDS011;9570;50.854;13.778;2023-02-25T04:57:06;3.90;;;2.10;;
18875;SDS011;9570;50.854;13.778;2023-02-25T04:59:32;3.67;;;1.70;;
18875;SDS011;9570;50.854;13.778;2023-02-25T05:01:58;6.23;;;2.00;;
18875;SDS011;9570;50.854;13.778;2023-02-25T05:04:23;2.97;;;1.63;;
18875;SDS011;9570;50.854;13.778;2023-02-25T05:06:49;1.10;;;1.00;;
18875;SDS011;9570;50.854;13.778;2023-02-25T05:09:14;1.33;;;1.00;;
18875;SDS011;9570;50.854;13.778;2023-02-25T05:11:40;0.90;;;0.90;;
18875;SDS011;9570;50.854;13.778;2023-02-25T05:14:05;1.13;;;0.70;;
18875;SDS011;9570;50.854;13.778;2023-02-25T05:16:31;1.37;;;0.83;;
18875;SDS011;9570;50.854;13.778;2023-02-25T05:18:56;0.93;;;0.87;;
18875;SDS011;9570;50.854;13.778;2023-02-25T05:21:23;1.67;;;0.83;;
18875;SDS011;9570;50.854;13.778;2023-02-25T05:23:50;0.73;;;0.70;;
18875;SDS011;9570;50.854;13.778;2023-02-25T05:26:18;0.85;;;0.70;;
18875;SDS011;9570;50.854;13.778;2023-02-25T05:28:47;0.90;;;0.70;;
18875;SDS011;9570;50.854;13.778;2023-02-25T05:31:14;0.63;;;0.63;;
18875;SDS011;9570;50.854;13.778;2023-02-25T05:33:39;0.80;;;0.80;;
18875;SDS011;9570;50.854;13.778;2023-02-25T05:36:05;0.73;;;0.70;;
18875;SDS011;9570;50.854;13.778;2023-02-25T05:38:32;0.93;;;0.70;;
18875;SDS011;9570;50.854;13.778;2023-02-25T05:40:59;0.50;;;0.50;;
18875;SDS011;9570;50.854;13.778;2023-02-25T05:43:25;0.63;;;0.63;;
18875;SDS011;9570;50.854;13.778;2023-02-25T05:45:54;0.40;;;0.40;;
18875;SDS011;9570;50.854;13.778;2023-02-25T05:48:21;0.43;;;0.43;;
18875;SDS011;9570;50.854;13.778;2023-02-25T05:50:50;0.47;;;0.47;;
18875;SDS011;9570;50.854;13.778;2023-02-25T05:53:23;0.47;;;0.47;;
18875;SDS011;9570;50.854;13.778;2023-02-25T05:55:48;0.53;;;0.53;;
18875;SDS011;9570;50.854;13.778;2023-02-25T05:58:14;0.63;;;0.63;;
18875;SDS011;9570;50.854;13.778;2023-02-25T06:00:39;0.63;;;0.60;;
18875;SDS011;9570;50.854;13.778;2023-02-25T06:03:05;0.70;;;0.70;;
18875;SDS011;9570;50.854;13.778;2023-02-25T06:05:30;0.60;;;0.60;;
18875;SDS011;9570;50.854;13.778;2023-02-25T06:07:56;0.90;;;0.90;;
18875;SDS011;9570;50.854;13.778;2023-02-25T06:10:22;1.00;;;0.80;;
18875;SDS011;9570;50.854;13.778;2023-02-25T06:12:48;0.80;;;0.80;;
18875;SDS011;9570;50.854;13.778;2023-02-25T06:15:14;1.93;;;1.20;;
18875;SDS011;9570;50.854;13.778;2023-02-25T06:17:39;1.67;;;0.97;;
18875;SDS011;9570;50.854;13.778;2023-02-25T06:20:05;0.97;;;0.97;;
18875;SDS011;9570;50.854;13.778;2023-02-25T06:22:31;0.80;;;0.80;;
18875;SDS011;9570;50.854;13.778;2023-02-25T06:24:57;1.47;;;1.10;;
18875;SDS011;9570;50.854;13.778;2023-02-25T06:27:22;1.70;;;1.10;;
18875;SDS011;9570;50.854;13.778;2023-02-25T06:29:48;1.20;;;1.00;;
18875;SDS011;9570;50.854;13.778;2023-02-25T06:32:13;1.43;;;1.30;;
18875;SDS011;9570;50.854;13.778;2023-02-25T06:34:39;1.43;;;1.33;;
18875;SDS011;9570;50.854;13.778;2023-02-25T06:37:05;3.30;;;1.60;;
18875;SDS011;9570;50.854;13.778;2023-02-25T06:39:31;1.92;;;1.30;;
18875;SDS011;9570;50.854;13.778;2023-02-25T06:41:57;1.93;;;1.50;;
18875;SDS011;9570;50.854;13.778;2023-02-25T06:44:23;2.13;;;1.40;;
18875;SDS011;9570;50.854;13.778;2023-02-25T06:46:52;1.97;;;1.70;;
18875;SDS011;9570;50.854;13.778;2023-02-25T06:49:20;1.92;;;1.52;;
18875;SDS011;9570;50.854;13.778;2023-02-25T06:51:46;2.00;;;1.70;;
18875;SDS011;9570;50.854;13.778;2023-02-25T06:54:13;1.85;;;1.60;;
18875;SDS011;9570;50.854;13.778;2023-02-25T06:56:39;1.80;;;1.70;;
18875;SDS011;9570;50.854;13.778;2023-02-25T06:59:05;2.23;;;2.03;;
18875;SDS011;9570;50.854;13.778;2023-02-25T07:01:31;4.67;;;1.50;;
18875;SDS011;9570;50.854;13.778;2023-02-25T07:03:56;3.07;;;1.90;;
18875;SDS011;9570;50.854;13.778;2023-02-25T07:06:21;2.47;;;1.77;;
18875;SDS011;9570;50.854;13.778;2023-02-25T07:08:47;3.17;;;1.97;;
18875;SDS011;9570;50.854;13.778;2023-02-25T07:11:13;2.30;;;2.10;;
18875;SDS011;9570;50.854;13.778;2023-02-25T07:13:43;3.70;;;2.10;;
18875;SDS011;9570;50.854;13.778;2023-02-25T07:16:11;2.72;;;2.10;;
18875;SDS011;9570;50.854;13.778;2023-02-25T07:18:37;3.50;;;1.80;;
18875;SDS011;9570;50.854;13.778;2023-02-25T07:21:03;6.13;;;2.00;;
18875;SDS011;9570;50.854;13.778;2023-02-25T07:23:29;2.40;;;1.90;;
18875;SDS011;9570;50.854;13.778;2023-02-25T07:25:54;2.73;;;2.00;;
18875;SDS011;9570;50.854;13.778;2023-02-25T07:28:19;6.43;;;2.30;;
18875;SDS011;9570;50.854;13.778;2023-02-25T07:30:45;2.33;;;2.03;;
18875;SDS011;9570;50.854;13.778;2023-02-25T07:33:10;3.07;;;2.03;;
18875;SDS011;9570;50.854;13.778;2023-02-25T07:35:36;2.47;;;2.00;;
18875;SDS011;9570;50.854;13.778;2023-02-25T07:38:01;2.83;;;1.63;;
18875;SDS011;9570;50.854;13.778;2023-02-25T07:40:27;1.77;;;1.67;;
18875;SDS011;9570;50.854;13.778;2023-02-25T07:42:52;2.17;;;1.83;;
18875;SDS011;9570;50.854;13.778;2023-02-25T07:45:18;3.07;;;2.17;;
18875;SDS011;9570;50.854;13.778;2023-02-25T07:47:43;2.80;;;1.93;;
18875;SDS011;9570;50.854;13.778;2023-02-25T07:50:09;3.93;;;2.20;;
18875;SDS011;9570;50.854;13.778;2023-02-25T07:52:35;2.53;;;1.90;;
18875;SDS011;9570;50.854;13.778;2023-02-25T07:55:02;2.60;;;2.10;;
18875;SDS011;9570;50.854;13.778;2023-02-25T07:57:28;3.10;;;2.33;;
18875;SDS011;9570;50.854;13.778;2023-02-25T07:59:53;2.10;;;1.90;;
18875;SDS011;9570;50.854;13.778;2023-02-25T08:02:19;3.23;;;2.20;;
18875;SDS011;9570;50.854;13.778;2023-02-25T08:04:45;2.70;;;2.00;;
18875;SDS011;9570;50.854;13.778;2023-02-25T08:07:11;2.40;;;1.97;;
18875;SDS011;9570;50.854;13.778;2023-02-25T08:09:37;5.27;;;2.10;;
18875;SDS011;9570;50.854;13.778;2023-02-25T08:12:02;3.20;;;2.03;;
18875;SDS011;9570;50.854;13.778;2023-02-25T08:14:28;2.80;;;2.00;;
18875;SDS011;9570;50.854;13.778;2023-02-25T08:16:56;6.23;;;2.47;;
18875;SDS011;9570;50.854;13.778;2023-02-25T08:19:22;2.30;;;1.90;;
18875;SDS011;9570;50.854;13.778;2023-02-25T08:21:48;3.40;;;2.17;;
18875;SDS011;9570;50.854;13.778;2023-02-25T08:24:13;2.10;;;1.90;;
18875;SDS011;9570;50.854;13.778;2023-02-25T08:26:39;4.07;;;2.17;;
18875;SDS011;9570;50.854;13.778;2023-02-25T08:29:05;2.13;;;1.90;;
18875;SDS011;9570;50.854;13.778;2023-02-25T08:31:31;3.07;;;2.23;;
18875;SDS011;9570;50.854;13.778;2023-02-25T08:33:57;3.50;;;2.63;;
18875;SDS011;9570;50.854;13.778;2023-02-25T08:36:25;3.63;;;1.90;;
18875;SDS011;9570;50.854;13.778;2023-02-25T08:38:52;4.30;;;2.03;;
18875;SDS011;9570;50.854;13.778;2023-02-25T08:41:19;2.73;;;1.90;;
18875;SDS011;9570;50.854;13.778;2023-02-25T08:43:49;2.83;;;2.30;;
18875;SDS011;9570;50.854;13.778;2023-02-25T08:46:18;2.83;;;2.10;;
18875;SDS011;9570;50.854;13.778;2023-02-25T08:48:44;3.07;;;2.00;;
18875;SDS011;9570;50.854;13.778;2023-02-25T08:51:12;2.70;;;1.80;;
18875;SDS011;9570;50.854;13.778;2023-02-25T08:53:39;2.80;;;2.00;;
18875;SDS011;9570;50.854;13.778;2023-02-25T08:56:05;2.20;;;2.00;;
18875;SDS011;9570;50.854;13.778;2023-02-25T08:58:32;3.03;;;1.80;;
18875;SDS011;9570;50.854;13.778;2023-02-25T09:00:58;2.10;;;1.90;;
18875;SDS011;9570;50.854;13.778;2023-02-25T09:03:24;2.40;;;1.70;;
18875;SDS011;9570;50.854;13.778;2023-02-25T09:05:50;2.03;;;1.87;;
18875;SDS011;9570;50.854;13.778;2023-02-25T09:08:17;3.30;;;1.87;;
18875;SDS011;9570;50.854;13.778;2023-02-25T09:10:42;2.60;;;2.03;;
18875;SDS011;9570;50.854;13.778;2023-02-25T09:13:08;5.47;;;2.13;;
18875;SDS011;9570;50.854;13.778;2023-02-25T09:15:33;3.23;;;1.60;;
18875;SDS011;9570;50.854;13.778;2023-02-25T09:17:58;1.90;;;1.70;;
18875;SDS011;9570;50.854;13.778;2023-02-25T09:20:24;1.53;;;1.43;;
18875;SDS011;9570;50.854;13.778;2023-02-25T09:22:50;1.70;;;1.40;;
18875;SDS011;9570;50.854;13.778;2023-02-25T09:25:16;1.87;;;1.30;;
18875;SDS011;9570;50.854;13.778;2023-02-25T09:27:41;2.77;;;1.50;;
18875;SDS011;9570;50.854;13.778;2023-02-25T09:30:07;2.00;;;1.60;;
18875;SDS011;9570;50.854;13.778;2023-02-25T09:32:33;2.13;;;1.60;;
18875;SDS011;9570;50.854;13.778;2023-02-25T09:34:58;1.30;;;1.20;;
18875;SDS011;9570;50.854;13.778;2023-02-25T09:37:30;1.73;;;1.40;;
18875;SDS011;9570;50.854;13.778;2023-02-25T09:39:56;1.37;;;1.27;;
18875;SDS011;9570;50.854;13.778;2023-02-25T09:42:22;1.87;;;1.77;;
18875;SDS011;9570;50.854;13.778;2023-02-25T09:44:58;1.70;;;1.60;;
18875;SDS011;9570;50.854;13.778;2023-02-25T09:47:27;2.00;;;1.80;;
18875;SDS011;9570;50.854;13.778;2023-02-25T09:49:58;1.87;;;1.53;;
18875;SDS011;9570;50.854;13.778;2023-02-25T09:52:31;1.70;;;1.60;;
18875;SDS011;9570;50.854;13.778;2023-02-25T09:55:10;2.70;;;1.67;;
18875;SDS011;9570;50.854;13.778;2023-02-25T09:57:43;1.60;;;1.50;;
18875;SDS011;9570;50.854;13.778;2023-02-25T10:00:21;1.90;;;1.60;;
18875;SDS011;9570;50.854;13.778;2023-02-25T10:02:49;1.27;;;1.17;;
18875;SDS011;9570;50.854;13.778;2023-02-25T10:05:27;1.27;;;1.17;;
18875;SDS011;9570;50.854;13.778;2023-02-25T10:08:17;1.20;;;1.10;;
18875;SDS011;9570;50.854;13.778;2023-02-25T10:16:21;0.77;;;0.77;;
18875;SDS011;9570;50.854;13.778;2023-02-25T10:19:00;0.70;;;0.70;;
18875;SDS011;9570;50.854;13.778;2023-02-25T10:21:53;0.60;;;0.60;;
18875;SDS011;9570;50.854;13.778;2023-02-25T10:27:16;1.00;;;0.90;;
18875;SDS011;9570;50.854;13.778;2023-02-25T10:29:49;1.17;;;0.90;;
18875;SDS011;9570;50.854;13.778;2023-02-25T10:32:23;0.77;;;0.77;;
18875;SDS011;9570;50.854;13.778;2023-02-25T10:34:51;0.70;;;0.70;;
18875;SDS011;9570;50.854;13.778;2023-02-25T10:37:20;1.93;;;0.90;;
18875;SDS011;9570;50.854;13.778;2023-02-25T10:39:51;0.80;;;0.80;;
18875;SDS011;9570;50.854;13.778;2023-02-25T10:42:20;0.83;;;0.83;;
18875;SDS011;9570;50.854;13.778;2023-02-25T10:44:46;0.70;;;0.70;;
18875;SDS011;9570;50.854;13.778;2023-02-25T10:47:14;0.80;;;0.80;;
18875;SDS011;9570;50.854;13.778;2023-02-25T10:52:34;2.00;;;1.03;;
18875;SDS011;9570;50.854;13.778;2023-02-25T10:55:00;1.00;;;0.90;;
18875;SDS011;9570;50.854;13.778;2023-02-25T10:57:33;1.00;;;0.90;;
18875;SDS011;9570;50.854;13.778;2023-02-25T11:00:07;1.20;;;0.80;;
18875;SDS011;9570;50.854;13.778;2023-02-25T11:02:53;1.23;;;0.93;;
18875;SDS011;9570;50.854;13.778;2023-02-25T11:05:35;0.97;;;0.90;;
18875;SDS011;9570;50.854;13.778;2023-02-25T11:08:04;0.77;;;0.77;;
18875;SDS011;9570;50.854;13.778;2023-02-25T11:11:04;1.57;;;1.00;;
18875;SDS011;9570;50.854;13.778;2023-02-25T11:13:41;1.80;;;1.00;;
18875;SDS011;9570;50.854;13.778;2023-02-25T11:16:08;1.37;;;1.00;;
18875;SDS011;9570;50.854;13.778;2023-02-25T11:18:36;1.10;;;1.00;;
18875;SDS011;9570;50.854;13.778;2023-02-25T11:21:05;1.20;;;1.10;;
18875;SDS011;9570;50.854;13.778;2023-02-25T11:23:46;1.63;;;1.30;;
18875;SDS011;9570;50.854;13.778;2023-02-25T11:26:13;1.33;;;1.00;;
18875;SDS011;9570;50.854;13.778;2023-02-25T11:28:43;1.23;;;1.10;;
18875;SDS011;9570;50.854;13.778;2023-02-25T11:31:15;0.87;;;0.87;;
18875;SDS011;9570;50.854;13.778;2023-02-25T11:33:44;0.90;;;0.90;;
18875;SDS011;9570;50.854;13.778;2023-02-25T11:36:23;1.20;;;1.10;;
18875;SDS011;9570;50.854;13.778;2023-02-25T11:39:03;1.20;;;1.10;;
18875;SDS011;9570;50.854;13.778;2023-02-25T11:41:39;1.30;;;1.20;;
18875;SDS011;9570;50.854;13.778;2023-02-25T11:44:25;1.30;;;1.20;;
18875;SDS011;9570;50.854;13.778;2023-02-25T11:46:57;1.77;;;1.33;;
18875;SDS011;9570;50.854;13.778;2023-02-25T11:49:35;1.47;;;1.20;;
18875;SDS011;9570;50.854;13.778;2023-02-25T11:52:09;1.80;;;1.47;;
18875;SDS011;9570;50.854;13.778;2023-02-25T11:54:49;1.37;;;1.27;;
18875;SDS011;9570;50.854;13.778;2023-02-25T11:57:18;1.30;;;1.20;;
18875;SDS011;9570;50.854;13.778;2023-02-25T12:02:53;1.20;;;1.10;;
18875;SDS011;9570;50.854;13.778;2023-02-25T12:05:45;1.40;;;1.30;;
18875;SDS011;9570;50.854;13.778;2023-02-25T12:11:12;1.70;;;1.50;;
18875;SDS011;9570;50.854;13.778;2023-02-25T12:16:46;1.33;;;1.23;;
18875;SDS011;9570;50.854;13.778;2023-02-25T12:22:29;1.30;;;1.20;;
18875;SDS011;9570;50.854;13.778;2023-02-25T12:25:23;1.67;;;1.30;;
18875;SDS011;9570;50.854;13.778;2023-02-25T12:39:55;1.40;;;1.30;;
18875;SDS011;9570;50.854;13.778;2023-02-25T12:42:54;1.80;;;1.50;;
18875;SDS011;9570;50.854;13.778;2023-02-25T12:51:04;1.30;;;1.20;;
18875;SDS011;9570;50.854;13.778;2023-02-25T12:53:41;1.93;;;1.40;;
18875;SDS011;9570;50.854;13.778;2023-02-25T13:02:03;1.30;;;1.20;;
18875;SDS011;9570;50.854;13.778;2023-02-25T13:05:00;1.63;;;1.50;;
18875;SDS011;9570;50.854;13.778;2023-02-25T13:07:45;1.87;;;1.40;;
18875;SDS011;9570;50.854;13.778;2023-02-25T13:10:38;1.20;;;1.10;;
18875;SDS011;9570;50.854;13.778;2023-02-25T13:13:45;1.30;;;1.10;;
18875;SDS011;9570;50.854;13.778;2023-02-25T13:24:19;1.00;;;1.00;;
18875;SDS011;9570;50.854;13.778;2023-02-25T13:29:50;1.10;;;1.00;;
18875;SDS011;9570;50.854;13.778;2023-02-25T13:32:36;1.97;;;1.13;;
18875;SDS011;9570;50.854;13.778;2023-02-25T13:35:14;1.10;;;1.00;;
18875;SDS011;9570;50.854;13.778;2023-02-25T13:38:10;1.10;;;1.00;;
18875;SDS011;9570;50.854;13.778;2023-02-25T13:40:47;1.00;;;1.00;;
18875;SDS011;9570;50.854;13.778;2023-02-25T13:46:45;1.77;;;1.10;;
18875;SDS011;9570;50.854;13.778;2023-02-25T13:55:07;1.13;;;1.03;;
18875;SDS011;9570;50.854;13.778;2023-02-25T13:58:01;1.43;;;0.90;;
18875;SDS011;9570;50.854;13.778;2023-02-25T14:09:55;1.70;;;0.90;;
18875;SDS011;9570;50.854;13.778;2023-02-25T14:12:46;0.80;;;0.80;;
18875;SDS011;9570;50.854;13.778;2023-02-25T14:15:36;1.10;;;1.00;;
18875;SDS011;9570;50.854;13.778;2023-02-25T14:18:21;0.70;;;0.70;;
18875;SDS011;9570;50.854;13.778;2023-02-25T14:24:09;0.90;;;0.90;;
18875;SDS011;9570;50.854;13.778;2023-02-25T14:29:45;0.80;;;0.80;;
18875;SDS011;9570;50.854;13.778;2023-02-25T14:35:11;0.70;;;0.70;;
18875;SDS011;9570;50.854;13.778;2023-02-25T14:37:55;1.13;;;0.90;;
18875;SDS011;9570;50.854;13.778;2023-02-25T14:40:52;0.73;;;0.60;;
18875;SDS011;9570;50.854;13.778;2023-02-25T14:43:47;0.70;;;0.70;;
18875;SDS011;9570;50.854;13.778;2023-02-25T14:49:12;0.70;;;0.70;;
18875;SDS011;9570;50.854;13.778;2023-02-25T14:52:07;0.70;;;0.70;;
18875;SDS011;9570;50.854;13.778;2023-02-25T14:57:27;0.60;;;0.60;;
18875;SDS011;9570;50.854;13.778;2023-02-25T15:05:54;0.60;;;0.60;;
18875;SDS011;9570;50.854;13.778;2023-02-25T15:08:42;0.70;;;0.70;;
18875;SDS011;9570;50.854;13.778;2023-02-25T15:11:35;0.60;;;0.60;;
18875;SDS011;9570;50.854;13.778;2023-02-25T15:14:09;0.60;;;0.60;;
18875;SDS011;9570;50.854;13.778;2023-02-25T15:20:24;0.80;;;0.80;;
18875;SDS011;9570;50.854;13.778;2023-02-25T15:33:26;0.50;;;0.50;;
18875;SDS011;9570;50.854;13.778;2023-02-25T15:38:52;0.82;;;0.82;;
18875;SDS011;9570;50.854;13.778;2023-02-25T15:41:29;0.60;;;0.60;;
18875;SDS011;9570;50.854;13.778;2023-02-25T15:46:37;0.60;;;0.60;;
18875;SDS011;9570;50.854;13.778;2023-02-25T15:49:14;0.60;;;0.60;;
18875;SDS011;9570;50.854;13.778;2023-02-25T15:51:57;0.60;;;0.60;;
18875;SDS011;9570;50.854;13.778;2023-02-25T15:57:03;0.70;;;0.70;;
18875;SDS011;9570;50.854;13.778;2023-02-25T15:59:52;0.70;;;0.70;;
18875;SDS011;9570;50.854;13.778;2023-02-25T16:04:55;0.60;;;0.60;;
18875;SDS011;9570;50.854;13.778;2023-02-25T16:07:37;0.70;;;0.70;;
18875;SDS011;9570;50.854;13.778;2023-02-25T16:12:40;0.80;;;0.80;;
18875;SDS011;9570;50.854;13.778;2023-02-25T16:15:10;0.80;;;0.80;;
18875;SDS011;9570;50.854;13.778;2023-02-25T16:17:50;0.90;;;0.80;;
18875;SDS011;9570;50.854;13.778;2023-02-25T16:20:26;3.42;;;0.80;;
18875;SDS011;9570;50.854;13.778;2023-02-25T16:22:55;0.83;;;0.83;;
18875;SDS011;9570;50.854;13.778;2023-02-25T16:25:27;0.90;;;0.90;;
18875;SDS011;9570;50.854;13.778;2023-02-25T16:30:39;0.80;;;0.80;;
18875;SDS011;9570;50.854;13.778;2023-02-25T16:33:23;0.80;;;0.77;;
18875;SDS011;9570;50.854;13.778;2023-02-25T16:36:06;0.70;;;0.70;;
18875;SDS011;9570;50.854;13.778;2023-02-25T16:41:20;0.63;;;0.63;;
18875;SDS011;9570;50.854;13.778;2023-02-25T16:43:47;1.58;;;0.98;;
18875;SDS011;9570;50.854;13.778;2023-02-25T16:46:19;0.80;;;0.80;;
18875;SDS011;9570;50.854;13.778;2023-02-25T16:48:48;1.10;;;1.00;;
18875;SDS011;9570;50.854;13.778;2023-02-25T16:53:48;0.80;;;0.80;;
18875;SDS011;9570;50.854;13.778;2023-02-25T16:56:23;0.80;;;0.80;;
18875;SDS011;9570;50.854;13.778;2023-02-25T17:01:33;1.52;;;1.00;;
18875;SDS011;9570;50.854;13.778;2023-02-25T17:04:15;1.52;;;1.00;;
18875;SDS011;9570;50.854;13.778;2023-02-25T17:12:39;1.98;;;0.90;;
18875;SDS011;9570;50.854;13.778;2023-02-25T17:15:15;1.58;;;1.02;;
18875;SDS011;9570;50.854;13.778;2023-02-25T17:17:45;1.25;;;1.15;;
18875;SDS011;9570;50.854;13.778;2023-02-25T17:20:16;1.08;;;0.98;;
18875;SDS011;9570;50.854;13.778;2023-02-25T17:22:51;0.90;;;0.90;;
18875;SDS011;9570;50.854;13.778;2023-02-25T17:25:17;1.27;;;1.17;;
18875;SDS011;9570;50.854;13.778;2023-02-25T17:27:45;1.48;;;1.33;;
18875;SDS011;9570;50.854;13.778;2023-02-25T17:33:20;1.30;;;1.20;;
18875;SDS011;9570;50.854;13.778;2023-02-25T17:35:49;1.60;;;1.48;;
18875;SDS011;9570;50.854;13.778;2023-02-25T17:38:17;1.30;;;1.20;;
18875;SDS011;9570;50.854;13.778;2023-02-25T17:40:45;1.17;;;1.08;;
18875;SDS011;9570;50.854;13.778;2023-02-25T17:45:54;1.67;;;1.20;;
18875;SDS011;9570;50.854;13.778;2023-02-25T17:48:23;1.73;;;1.30;;
18875;SDS011;9570;50.854;13.778;2023-02-25T17:50:51;1.63;;;1.10;;
18875;SDS011;9570;50.854;13.778;2023-02-25T17:53:24;1.20;;;1.10;;